sensor_id;sensor_type;location;lat;lon;timestamp;temperature;humidity
13091;DHT22;6611;52.604;13.438;2023-09-18T00:01:44;18.05;78.87
13091;DHT22;6611;52.604;13.438;2023-09-18T00:06:45;18.05;78.77
13091;DHT22;6611;52.604;13.438;2023-09-18T00:11:48;18.04;78.88
13091;DHT22;6611;52.604;13.438;2023-09-18T00:16:50;18.02;78.71
13091;DHT22;6611;52.604;13.438;2023-09-18T00:21:53;18.02;78.77
13091;DHT22;6611;52.604;13.438;2023-09-18T00:26:56;18.01;78.70
13091;DHT22;6611;52.604;13.438;2023-09-18T00:31:58;18.04;78.55
13091;DHT22;6611;52.604;13.438;2023-09-18T00:36:59;18.02;78.61
13091;DHT22;6611;52.604;13.438;2023-09-18T00:42:03;18.01;78.66
13091;DHT22;6611;52.604;13.438;2023-09-18T00:47:04;18.04;78.33
13091;DHT22;6611;52.604;13.438;2023-09-18T00:52:06;18.13;77.50
13091;DHT22;6611;52.604;13.438;2023-09-18T00:57:10;18.22;77.22
13091;DHT22;6611;52.604;13.438;2023-09-18T01:02:12;18.19;77.61
13091;DHT22;6611;52.604;13.438;2023-09-18T01:07:14;18.13;77.64
13091;DHT22;6611;52.604;13.438;2023-09-18T01:12:21;18.22;77.05
13091;DHT22;6611;52.604;13.438;2023-09-18T01:17:26;18.25;77.44
13091;DHT22;6611;52.604;13.438;2023-09-18T01:22:30;18.21;77.45
13091;DHT22;6611;52.604;13.438;2023-09-18T01:27:32;18.22;77.02
13091;DHT22;6611;52.604;13.438;2023-09-18T01:32:36;18.22;77.10
13091;DHT22;6611;52.604;13.438;2023-09-18T01:37:41;18.25;76.84
13091;DHT22;6611;52.604;13.438;2023-09-18T01:42:43;18.17;77.29
13091;DHT22;6611;52.604;13.438;2023-09-18T01:47:45;18.05;78.08
13091;DHT22;6611;52.604;13.438;2023-09-18T01:52:48;17.91;78.45
13091;DHT22;6611;52.604;13.438;2023-09-18T01:57:50;17.81;78.79
13091;DHT22;6611;52.604;13.438;2023-09-18T02:02:51;17.82;78.59
13091;DHT22;6611;52.604;13.438;2023-09-18T02:07:54;17.74;78.85
13091;DHT22;6611;52.604;13.438;2023-09-18T02:12:56;17.64;79.10
13091;DHT22;6611;52.604;13.438;2023-09-18T02:17:58;17.59;79.32
13091;DHT22;6611;52.604;13.438;2023-09-18T02:23:01;17.53;79.55
13091;DHT22;6611;52.604;13.438;2023-09-18T02:28:03;17.51;79.56
13091;DHT22;6611;52.604;13.438;2023-09-18T02:33:06;17.54;79.38
13091;DHT22;6611;52.604;13.438;2023-09-18T02:38:09;17.56;79.32
13091;DHT22;6611;52.604;13.438;2023-09-18T02:43:10;17.51;79.47
13091;DHT22;6611;52.604;13.438;2023-09-18T02:48:12;17.53;79.43
13091;DHT22;6611;52.604;13.438;2023-09-18T02:53:18;17.57;79.16
13091;DHT22;6611;52.604;13.438;2023-09-18T02:58:21;17.51;79.22
13091;DHT22;6611;52.604;13.438;2023-09-18T03:03:23;17.40;79.76
13091;DHT22;6611;52.604;13.438;2023-09-18T03:08:26;17.35;79.82
13091;DHT22;6611;52.604;13.438;2023-09-18T03:13:30;17.32;79.90
13091;DHT22;6611;52.604;13.438;2023-09-18T03:18:32;17.26;80.05
13091;DHT22;6611;52.604;13.438;2023-09-18T03:23:35;17.26;80.13
13091;DHT22;6611;52.604;13.438;2023-09-18T03:28:36;17.29;80.14
13091;DHT22;6611;52.604;13.438;2023-09-18T03:33:38;17.26;80.17
13091;DHT22;6611;52.604;13.438;2023-09-18T03:38:41;17.23;80.29
13091;DHT22;6611;52.604;13.438;2023-09-18T03:43:43;17.28;80.18
13091;DHT22;6611;52.604;13.438;2023-09-18T03:48:44;17.25;80.02
13091;DHT22;6611;52.604;13.438;2023-09-18T03:53:48;17.29;80.04
13091;DHT22;6611;52.604;13.438;2023-09-18T03:58:49;17.26;80.07
13091;DHT22;6611;52.604;13.438;2023-09-18T04:03:51;17.29;79.92
13091;DHT22;6611;52.604;13.438;2023-09-18T04:08:54;17.18;80.19
13091;DHT22;6611;52.604;13.438;2023-09-18T04:13:56;17.19;80.15
13091;DHT22;6611;52.604;13.438;2023-09-18T04:18:58;17.15;80.29
13091;DHT22;6611;52.604;13.438;2023-09-18T04:24:01;17.07;80.51
13091;DHT22;6611;52.604;13.438;2023-09-18T04:29:03;17.01;80.76
13091;DHT22;6611;52.604;13.438;2023-09-18T04:34:04;16.91;80.87
13091;DHT22;6611;52.604;13.438;2023-09-18T04:39:08;16.92;80.97
13091;DHT22;6611;52.604;13.438;2023-09-18T04:44:10;16.95;80.91
13091;DHT22;6611;52.604;13.438;2023-09-18T04:49:13;16.94;80.90
13091;DHT22;6611;52.604;13.438;2023-09-18T04:54:16;17.01;80.71
13091;DHT22;6611;52.604;13.438;2023-09-18T04:59:18;17.04;80.50
13091;DHT22;6611;52.604;13.438;2023-09-18T05:04:19;17.07;80.81
13091;DHT22;6611;52.604;13.438;2023-09-18T05:09:22;17.01;80.92
13091;DHT22;6611;52.604;13.438;2023-09-18T05:14:24;17.04;80.99
13091;DHT22;6611;52.604;13.438;2023-09-18T05:19:26;17.05;80.94
13091;DHT22;6611;52.604;13.438;2023-09-18T05:24:29;17.14;80.71
13091;DHT22;6611;52.604;13.438;2023-09-18T05:29:31;17.22;80.65
13091;DHT22;6611;52.604;13.438;2023-09-18T05:34:32;17.39;80.15
13091;DHT22;6611;52.604;13.438;2023-09-18T05:39:35;17.51;80.00
13091;DHT22;6611;52.604;13.438;2023-09-18T05:44:37;17.82;78.83
13091;DHT22;6611;52.604;13.438;2023-09-18T05:49:39;18.23;77.73
13091;DHT22;6611;52.604;13.438;2023-09-18T05:54:42;18.68;76.49
13091;DHT22;6611;52.604;13.438;2023-09-18T05:59:44;19.13;74.96
13091;DHT22;6611;52.604;13.438;2023-09-18T06:04:46;19.60;73.59
13091;DHT22;6611;52.604;13.438;2023-09-18T06:09:49;19.85;72.82
13091;DHT22;6611;52.604;13.438;2023-09-18T06:14:50;20.02;72.39
13091;DHT22;6611;52.604;13.438;2023-09-18T06:19:52;20.05;72.16
13091;DHT22;6611;52.604;13.438;2023-09-18T06:24:55;20.04;72.48
13091;DHT22;6611;52.604;13.438;2023-09-18T06:29:57;20.20;72.32
13091;DHT22;6611;52.604;13.438;2023-09-18T06:34:58;20.61;70.94
13091;DHT22;6611;52.604;13.438;2023-09-18T06:40:01;20.71;70.46
13091;DHT22;6611;52.604;13.438;2023-09-18T06:45:06;20.70;70.33
13091;DHT22;6611;52.604;13.438;2023-09-18T06:50:08;20.67;70.90
13091;DHT22;6611;52.604;13.438;2023-09-18T06:55:13;20.96;69.61
13091;DHT22;6611;52.604;13.438;2023-09-18T07:00:17;21.40;69.00
13091;DHT22;6611;52.604;13.438;2023-09-18T07:05:21;21.78;68.44
13091;DHT22;6611;52.604;13.438;2023-09-18T07:10:24;22.13;66.19
13091;DHT22;6611;52.604;13.438;2023-09-18T07:15:27;22.41;66.00
13091;DHT22;6611;52.604;13.438;2023-09-18T07:20:28;22.57;65.20
13091;DHT22;6611;52.604;13.438;2023-09-18T07:25:31;22.75;64.51
13091;DHT22;6611;52.604;13.438;2023-09-18T07:30:33;23.03;64.34
13091;DHT22;6611;52.604;13.438;2023-09-18T07:35:37;23.41;63.21
13091;DHT22;6611;52.604;13.438;2023-09-18T07:40:40;23.58;62.68
13091;DHT22;6611;52.604;13.438;2023-09-18T07:45:42;23.86;62.63
13091;DHT22;6611;52.604;13.438;2023-09-18T07:50:44;24.10;62.26
13091;DHT22;6611;52.604;13.438;2023-09-18T07:55:48;24.13;62.24
13091;DHT22;6611;52.604;13.438;2023-09-18T08:00:50;24.37;61.25
13091;DHT22;6611;52.604;13.438;2023-09-18T08:05:54;24.58;61.13
13091;DHT22;6611;52.604;13.438;2023-09-18T08:10:58;24.72;59.89
13091;DHT22;6611;52.604;13.438;2023-09-18T08:15:59;24.83;59.65
13091;DHT22;6611;52.604;13.438;2023-09-18T08:21:01;25.03;59.75
13091;DHT22;6611;52.604;13.438;2023-09-18T08:26:04;25.13;57.84
13091;DHT22;6611;52.604;13.438;2023-09-18T08:31:06;24.96;58.53
13091;DHT22;6611;52.604;13.438;2023-09-18T08:36:08;25.06;58.03
13091;DHT22;6611;52.604;13.438;2023-09-18T08:41:12;25.19;59.11
13091;DHT22;6611;52.604;13.438;2023-09-18T08:46:14;25.38;58.75
13091;DHT22;6611;52.604;13.438;2023-09-18T08:51:17;25.27;57.67
13091;DHT22;6611;52.604;13.438;2023-09-18T08:56:21;25.13;58.81
13091;DHT22;6611;52.604;13.438;2023-09-18T09:01:23;25.26;58.99
13091;DHT22;6611;52.604;13.438;2023-09-18T09:06:25;25.24;58.44
13091;DHT22;6611;52.604;13.438;2023-09-18T09:11:28;25.37;58.19
13091;DHT22;6611;52.604;13.438;2023-09-18T09:16:34;25.72;58.42
13091;DHT22;6611;52.604;13.438;2023-09-18T09:21:39;25.89;56.90
13091;DHT22;6611;52.604;13.438;2023-09-18T09:27:05;25.89;57.06
13091;DHT22;6611;52.604;13.438;2023-09-18T09:32:12;25.86;57.12
13091;DHT22;6611;52.604;13.438;2023-09-18T09:37:15;25.93;56.63
13091;DHT22;6611;52.604;13.438;2023-09-18T09:42:19;25.93;56.77
13091;DHT22;6611;52.604;13.438;2023-09-18T09:47:25;26.09;56.24
13091;DHT22;6611;52.604;13.438;2023-09-18T09:52:30;26.20;55.36
13091;DHT22;6611;52.604;13.438;2023-09-18T09:57:46;26.36;57.06
13091;DHT22;6611;52.604;13.438;2023-09-18T10:02:49;26.37;55.87
13091;DHT22;6611;52.604;13.438;2023-09-18T10:07:51;26.43;55.76
13091;DHT22;6611;52.604;13.438;2023-09-18T10:12:56;26.57;56.39
13091;DHT22;6611;52.604;13.438;2023-09-18T10:18:02;26.44;53.62
13091;DHT22;6611;52.604;13.438;2023-09-18T10:23:05;26.45;53.79
13091;DHT22;6611;52.604;13.438;2023-09-18T10:28:09;26.57;54.62
13091;DHT22;6611;52.604;13.438;2023-09-18T10:33:13;26.58;54.34
13091;DHT22;6611;52.604;13.438;2023-09-18T10:38:15;26.55;55.08
13091;DHT22;6611;52.604;13.438;2023-09-18T10:43:19;26.50;54.52
13091;DHT22;6611;52.604;13.438;2023-09-18T10:48:22;26.59;54.83
13091;DHT22;6611;52.604;13.438;2023-09-18T10:53:25;27.11;54.43
13091;DHT22;6611;52.604;13.438;2023-09-18T10:58:28;27.30;53.24
13091;DHT22;6611;52.604;13.438;2023-09-18T11:03:33;27.04;53.79
13091;DHT22;6611;52.604;13.438;2023-09-18T11:08:42;26.75;54.75
13091;DHT22;6611;52.604;13.438;2023-09-18T11:13:46;26.62;54.36
13091;DHT22;6611;52.604;13.438;2023-09-18T11:18:50;26.36;54.53
13091;DHT22;6611;52.604;13.438;2023-09-18T11:24:00;26.30;54.52
13091;DHT22;6611;52.604;13.438;2023-09-18T11:29:06;26.17;54.38
13091;DHT22;6611;52.604;13.438;2023-09-18T11:34:13;26.16;54.40
13091;DHT22;6611;52.604;13.438;2023-09-18T11:39:33;26.12;55.36
13091;DHT22;6611;52.604;13.438;2023-09-18T11:44:37;26.10;55.50
13091;DHT22;6611;52.604;13.438;2023-09-18T11:49:46;26.09;56.42
13091;DHT22;6611;52.604;13.438;2023-09-18T11:54:50;26.07;55.73
13091;DHT22;6611;52.604;13.438;2023-09-18T11:59:53;25.97;56.60
13091;DHT22;6611;52.604;13.438;2023-09-18T12:04:57;25.90;56.69
13091;DHT22;6611;52.604;13.438;2023-09-18T12:10:00;25.85;57.10
13091;DHT22;6611;52.604;13.438;2023-09-18T12:15:05;25.77;57.79
13091;DHT22;6611;52.604;13.438;2023-09-18T12:20:14;25.89;57.15
13091;DHT22;6611;52.604;13.438;2023-09-18T12:25:19;25.96;56.78
13091;DHT22;6611;52.604;13.438;2023-09-18T12:30:24;26.22;56.87
13091;DHT22;6611;52.604;13.438;2023-09-18T12:35:26;26.30;57.47
13091;DHT22;6611;52.604;13.438;2023-09-18T12:40:30;26.48;57.10
13091;DHT22;6611;52.604;13.438;2023-09-18T12:45:35;26.45;55.39
13091;DHT22;6611;52.604;13.438;2023-09-18T12:50:36;26.17;55.11
13091;DHT22;6611;52.604;13.438;2023-09-18T12:55:39;25.86;56.49
13091;DHT22;6611;52.604;13.438;2023-09-18T13:00:51;25.58;57.07
13091;DHT22;6611;52.604;13.438;2023-09-18T13:06:06;25.51;57.72
13091;DHT22;6611;52.604;13.438;2023-09-18T13:11:08;25.37;58.07
13091;DHT22;6611;52.604;13.438;2023-09-18T13:16:12;25.15;58.28
13091;DHT22;6611;52.604;13.438;2023-09-18T13:21:15;25.09;58.24
13091;DHT22;6611;52.604;13.438;2023-09-18T13:26:17;25.16;58.19
13091;DHT22;6611;52.604;13.438;2023-09-18T13:31:20;25.17;58.25
13091;DHT22;6611;52.604;13.438;2023-09-18T13:36:21;25.26;58.19
13091;DHT22;6611;52.604;13.438;2023-09-18T13:41:23;25.26;58.55
13091;DHT22;6611;52.604;13.438;2023-09-18T13:46:26;25.16;58.74
13091;DHT22;6611;52.604;13.438;2023-09-18T13:51:28;24.91;61.80
13091;DHT22;6611;52.604;13.438;2023-09-18T13:56:29;24.51;64.74
13091;DHT22;6611;52.604;13.438;2023-09-18T14:01:32;24.05;67.39
13091;DHT22;6611;52.604;13.438;2023-09-18T14:06:34;23.86;67.48
13091;DHT22;6611;52.604;13.438;2023-09-18T14:11:36;23.95;68.28
13091;DHT22;6611;52.604;13.438;2023-09-18T14:16:39;23.95;66.89
13091;DHT22;6611;52.604;13.438;2023-09-18T14:21:41;23.99;66.91
13091;DHT22;6611;52.604;13.438;2023-09-18T14:26:43;23.96;65.94
13091;DHT22;6611;52.604;13.438;2023-09-18T14:31:46;23.93;65.58
13091;DHT22;6611;52.604;13.438;2023-09-18T14:36:48;23.98;65.77
13091;DHT22;6611;52.604;13.438;2023-09-18T14:41:49;24.06;65.84
13091;DHT22;6611;52.604;13.438;2023-09-18T14:46:52;23.99;66.16
13091;DHT22;6611;52.604;13.438;2023-09-18T14:51:54;23.90;65.68
13091;DHT22;6611;52.604;13.438;2023-09-18T14:56:56;23.81;66.15
13091;DHT22;6611;52.604;13.438;2023-09-18T15:01:59;23.81;65.56
13091;DHT22;6611;52.604;13.438;2023-09-18T15:07:01;23.78;64.68
13091;DHT22;6611;52.604;13.438;2023-09-18T15:12:04;23.75;64.38
13091;DHT22;6611;52.604;13.438;2023-09-18T15:17:09;23.81;63.39
13091;DHT22;6611;52.604;13.438;2023-09-18T15:22:11;23.92;62.49
13091;DHT22;6611;52.604;13.438;2023-09-18T15:27:13;24.01;62.28
13091;DHT22;6611;52.604;13.438;2023-09-18T15:32:16;23.93;62.08
13091;DHT22;6611;52.604;13.438;2023-09-18T15:37:20;23.98;62.13
13091;DHT22;6611;52.604;13.438;2023-09-18T15:42:22;23.96;61.63
13091;DHT22;6611;52.604;13.438;2023-09-18T15:47:25;23.90;61.96
13091;DHT22;6611;52.604;13.438;2023-09-18T15:52:31;23.89;62.32
13091;DHT22;6611;52.604;13.438;2023-09-18T15:57:36;23.88;62.28
13091;DHT22;6611;52.604;13.438;2023-09-18T16:02:40;23.75;63.13
13091;DHT22;6611;52.604;13.438;2023-09-18T16:07:43;23.72;63.04
13091;DHT22;6611;52.604;13.438;2023-09-18T16:12:46;23.68;63.24
13091;DHT22;6611;52.604;13.438;2023-09-18T16:17:49;23.57;63.79
13091;DHT22;6611;52.604;13.438;2023-09-18T16:22:51;23.51;65.19
13091;DHT22;6611;52.604;13.438;2023-09-18T16:27:52;23.30;67.89
13091;DHT22;6611;52.604;13.438;2023-09-18T16:32:56;22.91;70.19
13091;DHT22;6611;52.604;13.438;2023-09-18T16:37:57;22.60;71.21
13091;DHT22;6611;52.604;13.438;2023-09-18T16:43:00;22.44;72.65
13091;DHT22;6611;52.604;13.438;2023-09-18T16:48:06;22.37;72.28
13091;DHT22;6611;52.604;13.438;2023-09-18T16:53:09;22.30;73.01
13091;DHT22;6611;52.604;13.438;2023-09-18T16:58:11;22.13;73.60
13091;DHT22;6611;52.604;13.438;2023-09-18T17:03:14;22.09;74.00
13091;DHT22;6611;52.604;13.438;2023-09-18T17:08:15;21.98;74.51
13091;DHT22;6611;52.604;13.438;2023-09-18T17:13:17;21.99;75.82
13091;DHT22;6611;52.604;13.438;2023-09-18T17:18:20;21.89;76.18
13091;DHT22;6611;52.604;13.438;2023-09-18T17:23:22;21.77;76.45
13091;DHT22;6611;52.604;13.438;2023-09-18T17:28:23;21.74;76.43
13091;DHT22;6611;52.604;13.438;2023-09-18T17:33:26;21.64;76.69
13091;DHT22;6611;52.604;13.438;2023-09-18T17:38:28;21.59;76.84
13091;DHT22;6611;52.604;13.438;2023-09-18T17:43:30;21.50;77.09
13091;DHT22;6611;52.604;13.438;2023-09-18T17:48:33;21.43;77.33
13091;DHT22;6611;52.604;13.438;2023-09-18T17:53:37;21.40;77.24
13091;DHT22;6611;52.604;13.438;2023-09-18T17:58:38;21.43;77.02
13091;DHT22;6611;52.604;13.438;2023-09-18T18:03:41;21.36;77.08
13091;DHT22;6611;52.604;13.438;2023-09-18T18:08:44;21.34;77.09
13091;DHT22;6611;52.604;13.438;2023-09-18T18:13:45;21.29;77.09
13091;DHT22;6611;52.604;13.438;2023-09-18T18:18:48;21.29;76.92
13091;DHT22;6611;52.604;13.438;2023-09-18T18:23:50;21.26;76.77
13091;DHT22;6611;52.604;13.438;2023-09-18T18:28:52;21.24;76.58
13091;DHT22;6611;52.604;13.438;2023-09-18T18:33:56;21.23;76.24
13091;DHT22;6611;52.604;13.438;2023-09-18T18:39:00;21.19;76.15
13091;DHT22;6611;52.604;13.438;2023-09-18T18:44:02;21.19;76.36
13091;DHT22;6611;52.604;13.438;2023-09-18T18:49:05;21.12;76.49
13091;DHT22;6611;52.604;13.438;2023-09-18T18:54:06;21.13;76.56
13091;DHT22;6611;52.604;13.438;2023-09-18T18:59:08;21.12;76.67
13091;DHT22;6611;52.604;13.438;2023-09-18T19:04:11;21.13;76.27
13091;DHT22;6611;52.604;13.438;2023-09-18T19:09:13;21.12;75.90
13091;DHT22;6611;52.604;13.438;2023-09-18T19:14:14;21.13;75.80
13091;DHT22;6611;52.604;13.438;2023-09-18T19:19:17;21.12;75.45
13091;DHT22;6611;52.604;13.438;2023-09-18T19:24:19;21.12;75.25
13091;DHT22;6611;52.604;13.438;2023-09-18T19:29:21;21.05;75.28
13091;DHT22;6611;52.604;13.438;2023-09-18T19:34:26;20.98;75.51
13091;DHT22;6611;52.604;13.438;2023-09-18T19:39:27;20.95;75.68
13091;DHT22;6611;52.604;13.438;2023-09-18T19:44:29;20.85;75.78
13091;DHT22;6611;52.604;13.438;2023-09-18T19:49:32;20.78;75.90
13091;DHT22;6611;52.604;13.438;2023-09-18T19:54:34;20.79;75.99
13091;DHT22;6611;52.604;13.438;2023-09-18T19:59:36;20.74;76.28
13091;DHT22;6611;52.604;13.438;2023-09-18T20:04:39;20.63;76.45
13091;DHT22;6611;52.604;13.438;2023-09-18T20:09:41;20.61;76.59
13091;DHT22;6611;52.604;13.438;2023-09-18T20:14:42;20.55;76.63
13091;DHT22;6611;52.604;13.438;2023-09-18T20:19:46;20.53;76.83
13091;DHT22;6611;52.604;13.438;2023-09-18T20:24:47;20.51;76.86
13091;DHT22;6611;52.604;13.438;2023-09-18T20:29:50;20.50;77.06
13091;DHT22;6611;52.604;13.438;2023-09-18T20:34:53;20.41;77.17
13091;DHT22;6611;52.604;13.438;2023-09-18T20:39:54;20.36;77.29
13091;DHT22;6611;52.604;13.438;2023-09-18T20:44:56;20.27;77.53
13091;DHT22;6611;52.604;13.438;2023-09-18T20:50:00;20.25;77.69
13091;DHT22;6611;52.604;13.438;2023-09-18T20:55:04;20.20;78.00
13091;DHT22;6611;52.604;13.438;2023-09-18T21:00:07;20.17;77.90
13091;DHT22;6611;52.604;13.438;2023-09-18T21:05:11;20.09;78.09
13091;DHT22;6611;52.604;13.438;2023-09-18T21:10:13;20.06;78.14
13091;DHT22;6611;52.604;13.438;2023-09-18T21:15:15;20.04;78.28
13091;DHT22;6611;52.604;13.438;2023-09-18T21:20:18;19.93;78.60
13091;DHT22;6611;52.604;13.438;2023-09-18T21:25:20;19.88;78.73
13091;DHT22;6611;52.604;13.438;2023-09-18T21:30:21;19.84;78.94
13091;DHT22;6611;52.604;13.438;2023-09-18T21:35:25;19.79;79.15
13091;DHT22;6611;52.604;13.438;2023-09-18T21:40:27;19.70;79.43
13091;DHT22;6611;52.604;13.438;2023-09-18T21:45:29;19.64;79.58
13091;DHT22;6611;52.604;13.438;2023-09-18T21:50:32;19.65;79.40
13091;DHT22;6611;52.604;13.438;2023-09-18T21:55:34;19.63;79.45
13091;DHT22;6611;52.604;13.438;2023-09-18T22:00:35;19.51;79.96
13091;DHT22;6611;52.604;13.438;2023-09-18T22:05:42;19.45;80.34
13091;DHT22;6611;52.604;13.438;2023-09-18T22:10:43;19.33;80.61
13091;DHT22;6611;52.604;13.438;2023-09-18T22:15:45;19.34;80.61
13091;DHT22;6611;52.604;13.438;2023-09-18T22:20:49;19.33;80.67
13091;DHT22;6611;52.604;13.438;2023-09-18T22:25:52;19.22;80.90
13091;DHT22;6611;52.604;13.438;2023-09-18T22:30:54;19.18;80.91
13091;DHT22;6611;52.604;13.438;2023-09-18T22:35:58;19.19;80.64
13091;DHT22;6611;52.604;13.438;2023-09-18T22:57:25;19.22;80.15
13091;DHT22;6611;52.604;13.438;2023-09-18T23:02:27;19.22;80.09
13091;DHT22;6611;52.604;13.438;2023-09-18T23:07:30;19.24;79.98
13091;DHT22;6611;52.604;13.438;2023-09-18T23:12:33;19.24;79.95
13091;DHT22;6611;52.604;13.438;2023-09-18T23:17:39;19.26;79.79
13091;DHT22;6611;52.604;13.438;2023-09-18T23:22:42;19.15;80.05
13091;DHT22;6611;52.604;13.438;2023-09-18T23:27:46;19.16;80.01
13091;DHT22;6611;52.604;13.438;2023-09-18T23:32:51;19.13;79.96
13091;DHT22;6611;52.604;13.438;2023-09-18T23:37:54;19.08;80.00
13091;DHT22;6611;52.604;13.438;2023-09-18T23:43:00;18.96;80.31
13091;DHT22;6611;52.604;13.438;2023-09-18T23:48:05;18.95;80.31
13091;DHT22;6611;52.604;13.438;2023-09-18T23:53:10;18.89;80.39
13091;DHT22;6611;52.604;13.438;2023-09-18T23:58:15;18.89;80.31
